Latest Weather Observations for Melbourne (Olympic Park)

IDV60801

Issued at 5:32 pm EST Tuesday 28 June 2016 (issued every 30 minutes, with the page automatically refreshed every 10 minutes)

About weather observations | Map of weather stations | Latest weather observations for VIC | Other Formats
Station Details ID: 086338 Name: MELBOURNE (OLYMPIC PARK) Lat: -37.83 Lon: 144.98 Height: 7.53 m
Data from the previous 72 hours. | See also: Recent months at Melbourne (Olympic Park)
Date/Time
EST
Temp
°C
App
Temp
°C
Dew
Point
°C
Rel
Hum
%
Delta-T
°C
Wind Press
QNH
hPa
Press
MSL
hPa
Rain since
9am
mm
Dir  Spd
km/h
Gust
km/h
Spd
kts
Gust
kts
28/05:30pm 12.3 8.6 8.0 75 2.1 N 17 24 9 13 1024.5 1024.5 0.0
28/05:00pm 12.9 10.0 8.2 73 2.3 N 13 20 7 11 1024.3 1024.3 0.0
28/04:30pm 13.4 10.6 8.5 72 2.4 N 13 19 7 10 1024.0 1024.0 0.0
28/04:00pm 15.6 13.3 7.6 59 4.0 NW 9 19 5 10 1023.8 1023.8 0.0
28/03:30pm 15.2 12.7 8.4 64 3.4 N 11 19 6 10 1023.6 1023.6 0.0
28/03:00pm 16.1 13.8 7.3 56 4.3 NW 9 13 5 7 1023.5 1023.5 0.0
28/02:30pm 14.7 12.3 8.6 67 3.1 N 11 15 6 8 1023.5 1023.5 0.0
28/02:00pm 15.6 12.9 8.8 64 3.5 N 13 17 7 9 1023.3 1023.3 0.0
28/01:30pm 15.5 13.1 8.5 63 3.5 NNW 11 15 6 8 1023.3 1023.3 0.0
28/01:00pm 15.1 12.3 8.6 65 3.3 N 13 19 7 10 1023.6 1023.6 0.0
28/12:30pm 14.4 11.9 8.1 66 3.1 N 11 20 6 11 1023.6 1023.6 0.0
28/12:00pm 13.6 9.8 7.4 66 3.0 N 17 22 9 12 1023.9 1023.9 0.0
28/11:30am 13.5 10.4 7.3 66 3.0 N 13 20 7 11 1024.1 1024.1 0.0
28/11:00am 13.3 9.8 7.3 67 2.9 N 15 20 8 11 1024.1 1024.1 0.0
28/10:30am 12.9 9.7 6.9 67 2.9 N 13 20 7 11 1024.2 1024.2 0.0
28/10:00am 11.5 9.1 6.8 73 2.2 N 9 17 5 9 1024.2 1024.2 0.0
28/09:30am 10.5 8.3 6.3 75 2.0 N 7 13 4 7 1024.0 1024.0 0.0
28/09:00am 9.7 7.1 5.9 77 1.7 N 9 15 5 8 1023.7 1023.7 0.2
28/08:30am 8.5 5.5 5.8 83 1.2 N 11 17 6 9 1023.5 1023.5 0.2
28/08:00am 8.5 5.4 5.4 81 1.4 NNE 11 17 6 9 1023.3 1023.3 0.2
28/07:30am 8.6 5.9 5.5 81 1.4 N 9 15 5 8 1023.0 1023.0 0.2
28/07:00am 8.4 6.1 5.5 82 1.3 N 7 13 4 7 1022.8 1022.8 0.2
28/06:30am 8.1 5.7 5.2 82 1.3 N 7 13 4 7 1022.5 1022.5 0.2
28/06:00am 8.0 4.8 5.1 82 1.3 N 11 15 6 8 1022.2 1022.2 0.2
28/05:30am 7.5 4.3 5.0 84 1.1 N 11 15 6 8 1022.0 1022.0 0.2
28/05:00am 7.2 4.0 5.0 86 1.0 N 11 15 6 8 1021.9 1021.9 0.2
28/04:30am 7.0 4.2 5.0 87 0.9 N 9 15 5 8 1021.7 1021.7 0.2
28/04:00am 6.3 4.0 4.8 90 0.6 NNE 6 11 3 6 1021.6 1021.6 0.2
28/03:30am 6.3 3.4 4.5 88 0.8 NNE 9 11 5 6 1021.7 1021.7 0.2
28/03:00am 5.2 3.9 4.2 93 0.4 CALM 0 6 0 3 1021.6 1021.6 0.2
28/02:30am 5.4 3.4 4.4 93 0.4 E 4 7 2 4 1021.7 1021.7 0.2
28/02:00am 5.4 4.1 4.2 92 0.5 CALM 0 0 0 0 1021.6 1021.6 0.2
28/01:30am 6.5 4.1 4.5 87 0.9 N 6 9 3 5 1021.4 1021.4 0.2
28/01:00am 6.2 3.9 4.7 90 0.6 NE 6 7 3 4 1021.4 1021.4 0.2
28/12:30am 6.3 4.0 4.8 90 0.7 NNW 6 11 3 6 1021.5 1021.5 0.2
28/12:00am 6.8 4.9 5.1 89 0.7 NNW 4 7 2 4 1021.4 1021.4 0.2
 
Date/Time
EST
Temp
°C
App
Temp
°C
Dew
Point
°C
Rel
Hum
%
Delta-T
°C
Wind Press
QNH
hPa
Press
MSL
hPa
Rain since
9am
mm
Dir  Spd
km/h
Gust
km/h
Spd
kts
Gust
kts
27/11:30pm 7.1 5.0 5.6 90 0.7 NNW 6 9 3 5 1021.3 1021.3 0.2
27/11:00pm 6.9 5.5 5.5 91 0.6 NE 2 7 1 4 1021.3 1021.3 0.2
27/10:30pm 8.0 5.8 6.1 88 0.9 N 7 13 4 7 1021.2 1021.2 0.2
27/10:00pm 8.1 5.7 6.9 92 0.6 NNW 9 13 5 7 1021.1 1021.1 0.2
27/09:30pm 7.5 6.5 7.4 99 0.0 N 2 7 1 4 1020.9 1020.9 0.2
27/09:00pm 7.8 6.1 7.5 98 0.1 NNW 6 13 3 7 1020.7 1020.7 0.2
27/08:30pm 7.2 6.5 6.9 98 0.1 CALM 0 2 0 1 1020.6 1020.6 0.2
27/08:00pm 7.8 7.1 7.1 95 0.3 CALM 0 6 0 3 1020.4 1020.4 0.2
27/07:30pm 8.6 6.8 7.1 90 0.7 NW 6 9 3 5 1020.1 1020.1 0.2
27/07:00pm 9.3 8.9 8.2 93 0.5 CALM 0 0 0 0 1019.8 1019.8 0.2
27/06:30pm 10.3 8.6 8.4 88 0.9 N 7 11 4 6 1019.5 1019.5 0.2
27/06:00pm 10.2 8.6 8.8 91 0.7 N 7 13 4 7 1019.3 1019.3 0.2
27/05:30pm 10.2 8.7 9.1 93 0.5 NNW 7 11 4 6 1019.1 1019.1 0.2
27/05:00pm 10.4 8.6 9.3 93 0.5 N 9 11 5 6 1018.5 1018.5 0.2
27/04:30pm 10.4 9.0 9.5 94 0.4 N 7 9 4 5 1018.3 1018.3 0.2
27/04:00pm 10.3 9.1 9.5 95 0.4 N 6 9 3 5 1018.4 1018.4 0.2
27/03:30pm 10.2 8.9 9.1 93 0.5 NNW 6 9 3 5 1018.2 1018.2 0.2
27/03:00pm 10.2 8.6 8.6 90 0.8 N 7 9 4 5 1017.9 1017.9 0.0
27/02:30pm 9.9 7.9 8.5 91 0.7 N 9 13 5 7 1017.6 1017.6 0.0
27/02:00pm 10.4 8.5 7.5 82 1.4 N 7 11 4 6 1017.5 1017.5 0.0
27/01:30pm 10.2 7.7 6.5 78 1.7 N 9 13 5 7 1017.5 1017.5 0.0
27/01:00pm 10.0 7.4 6.2 77 1.8 N 9 17 5 9 1017.6 1017.6 0.0
27/12:30pm 9.6 7.1 6.7 82 1.4 NNW 9 17 5 9 1017.6 1017.6 0.0
27/12:00pm 9.4 6.5 6.3 81 1.4 N 11 17 6 9 1017.8 1017.8 0.0
27/11:30am 9.0 6.5 6.4 84 1.2 N 9 19 5 10 1018.0 1018.0 0.0
27/11:00am 8.6 6.4 6.2 85 1.1 N 7 13 4 7 1018.1 1018.1 0.0
27/10:30am 8.8 6.1 5.4 79 1.5 N 9 15 5 8 1018.1 1018.1 0.0
27/10:00am 8.5 5.3 5.1 79 1.5 N 11 19 6 10 1018.0 1018.0 0.0
27/09:30am 8.0 4.4 5.1 82 1.3 N 13 20 7 11 1017.9 1017.9 0.0
27/09:00am 7.8 4.9 4.9 82 1.3 N 9 17 5 9 1017.7 1017.7 0.2
27/08:30am 7.8 4.6 4.9 82 1.3 N 11 17 6 9 1017.6 1017.6 0.2
27/08:00am 7.7 4.0 4.7 81 1.3 N 13 19 7 10 1017.3 1017.3 0.2
27/07:30am 7.6 4.7 4.9 83 1.2 N 9 17 5 9 1017.1 1017.1 0.2
27/07:00am 7.5 4.7 5.0 84 1.1 N 9 17 5 9 1016.9 1016.9 0.2
27/06:30am 7.5 4.2 4.8 83 1.2 N 11 20 6 11 1016.7 1016.7 0.2
27/06:00am 7.6 4.3 4.7 82 1.3 N 11 17 6 9 1016.5 1016.5 0.0
27/05:30am 7.7 4.7 3.9 77 1.6 N 9 13 5 7 1016.1 1016.1 0.0
27/05:00am 7.5 4.4 3.7 77 1.6 NNE 9 13 5 7 1016.0 1016.0 0.0
27/04:30am 7.3 4.3 3.9 79 1.5 N 9 11 5 6 1016.0 1016.0 0.0
27/04:00am 7.0 3.9 3.8 80 1.4 NNE 9 15 5 8 1016.0 1016.0 0.0
27/03:30am 6.8 3.7 3.6 80 1.4 N 9 17 5 9 1016.1 1016.1 0.0
27/03:00am 7.1 3.7 3.9 80 1.4 N 11 15 6 8 1016.2 1016.2 0.0
27/02:30am 7.0 3.2 3.8 80 1.4 N 13 17 7 9 1016.3 1016.3 0.0
27/02:00am 7.0 3.6 4.0 81 1.3 N 11 17 6 9 1016.4 1016.4 0.0
27/01:30am 7.1 3.3 4.1 81 1.3 N 13 17 7 9 1016.4 1016.4 0.0
27/01:00am 6.8 3.0 3.9 82 1.2 N 13 22 7 12 1016.3 1016.3 0.0
27/12:30am 6.8 3.0 4.1 83 1.2 N 13 20 7 11 1016.4 1016.4 0.0
27/12:00am 6.9 3.5 4.0 82 1.2 N 11 15 6 8 1016.5 1016.5 0.0
 
Date/Time
EST
Temp
°C
App
Temp
°C
Dew
Point
°C
Rel
Hum
%
Delta-T
°C
Wind Press
QNH
hPa
Press
MSL
hPa
Rain since
9am
mm
Dir  Spd
km/h
Gust
km/h
Spd
kts
Gust
kts
26/11:30pm 7.1 3.0 4.1 81 1.3 N 15 20 8 11 1016.5 1016.5 0.0
26/11:00pm 7.3 3.1 3.9 79 1.5 N 15 20 8 11 1016.6 1016.6 0.0
26/10:30pm 7.3 3.5 3.9 79 1.5 N 13 17 7 9 1016.7 1016.7 0.0
26/10:00pm 7.1 3.3 3.9 80 1.4 N 13 19 7 10 1016.8 1016.8 0.0
26/09:30pm 7.3 3.2 4.1 80 1.4 N 15 22 8 12 1017.0 1017.0 0.0
26/09:00pm 7.1 3.7 3.9 80 1.4 NNW 11 19 6 10 1017.2 1017.2 0.0
26/08:30pm 7.1 3.3 3.7 79 1.4 NNW 13 19 7 10 1017.4 1017.4 0.0
26/08:00pm 7.5 4.1 3.9 78 1.5 N 11 15 6 8 1017.5 1017.5 0.0
26/07:30pm 7.8 4.0 4.0 77 1.6 N 13 19 7 10 1017.4 1017.4 0.0
26/07:00pm 7.8 4.0 3.8 76 1.7 N 13 19 7 10 1017.5 1017.5 0.0
26/06:30pm 8.1 4.5 3.2 71 2.1 N 11 15 6 8 1017.4 1017.4 0.0
26/06:00pm 8.7 4.5 1.4 60 3.0 N 13 19 7 10 1017.2 1017.2 0.0
26/05:30pm 9.0 5.1 1.4 59 3.1 N 11 17 6 9 1017.2 1017.2 0.0
26/05:00pm 9.4 5.2 1.6 58 3.2 N 13 19 7 10 1017.2 1017.2 0.0
26/04:30pm 9.8 5.9 1.2 55 3.5 N 11 20 6 11 1017.4 1017.4 0.0
26/04:00pm 9.9 5.3 1.8 57 3.4 N 15 24 8 13 1017.3 1017.3 0.0
26/03:30pm 10.1 5.6 2.0 57 3.4 N 15 22 8 12 1017.3 1017.3 0.0
26/03:00pm 10.0 4.6 1.4 55 3.6 N 19 30 10 16 1017.4 1017.4 0.0
26/02:30pm 9.9 5.2 3.2 63 2.9 N 17 26 9 14 1017.6 1017.6 0.0
26/02:00pm 10.0 4.9 3.1 62 3.0 N 19 32 10 17 1017.7 1017.7 0.0
26/01:30pm 10.7 5.7 3.5 61 3.2 N 19 39 10 21 1017.9 1017.9 0.0
26/01:00pm 10.2 4.5 3.0 61 3.1 N 22 35 12 19 1018.1 1018.1 0.0
26/12:30pm 10.5 5.9 3.8 63 3.0 N 17 30 9 16 1018.4 1018.4 0.0
26/12:00pm 9.7 5.9 3.9 67 2.5 N 13 24 7 13 1018.7 1018.7 0.0
26/11:30am 9.1 4.5 3.9 70 2.3 N 17 24 9 13 1019.4 1019.4 0.0
26/11:00am 8.6 4.1 4.4 75 1.8 N 17 24 9 13 1019.9 1019.9 0.0
26/10:30am 7.9 3.4 4.1 77 1.6 NNW 17 28 9 15 1020.3 1020.3 0.0
26/10:00am 7.7 2.8 4.1 78 1.6 N 19 24 10 13 1020.6 1020.6 0.0
26/09:30am 7.0 3.2 4.1 82 1.2 N 13 20 7 11 1020.9 1020.9 0.0
26/09:00am 4.8 1.2 3.0 88 0.7 NNE 11 13 6 7 1021.1 1021.1 0.2
26/08:30am 3.6 -0.1 2.4 92 0.5 NNE 11 15 6 8 1021.2 1021.2 0.2
26/08:00am 3.4 0.1 2.4 93 0.4 NNE 9 13 5 7 1021.4 1021.4 0.2
26/07:30am 3.3 -0.4 2.4 94 0.4 NNE 11 17 6 9 1021.2 1021.2 0.2
26/07:00am 3.3 0.0 2.4 94 0.4 NNE 9 15 5 8 1021.1 1021.1 0.2
26/06:30am 3.5 0.2 2.6 94 0.4 NNE 9 13 5 7 1021.0 1021.0 0.2
26/06:00am 3.5 0.2 2.6 94 0.4 NNE 9 11 5 6 1021.1 1021.1 0.2
26/05:30am 3.5 0.2 2.6 94 0.4 NNE 9 11 5 6 1021.1 1021.1 0.2
26/05:00am 3.8 0.9 2.8 93 0.4 NNE 7 11 4 6 1020.9 1020.9 0.0
26/04:30am 3.6 0.9 2.6 93 0.4 N 6 11 3 6 1020.6 1020.6 0.0
26/04:00am 4.1 0.9 3.1 93 0.4 NNE 9 13 5 7 1020.5 1020.5 0.0
26/03:30am 4.3 1.1 3.3 93 0.4 NNE 9 11 5 6 1020.8 1020.8 0.0
26/03:00am 4.5 1.3 3.3 92 0.5 NNE 9 11 5 6 1021.3 1021.3 0.0
26/02:30am 4.8 2.1 3.6 92 0.5 NE 7 11 4 6 1021.4 1021.4 0.0
26/02:00am 4.9 1.8 3.7 92 0.5 NNE 9 13 5 7 1021.5 1021.5 0.0
26/01:30am 5.1 2.1 3.9 92 0.5 NNE 9 13 5 7 1021.6 1021.6 0.0
26/01:00am 5.2 2.2 4.0 92 0.5 NNE 9 11 5 6 1021.5 1021.5 0.0
26/12:30am 5.5 2.6 4.5 93 0.4 NNE 9 13 5 7 1021.9 1021.9 0.0
26/12:00am 5.8 2.5 4.8 93 0.4 NNE 11 13 6 7 1022.0 1022.0 0.0
 
Date/Time
EST
Temp
°C
App
Temp
°C
Dew
Point
°C
Rel
Hum
%
Delta-T
°C
Wind Press
QNH
hPa
Press
MSL
hPa
Rain since
9am
mm
Dir  Spd
km/h
Gust
km/h
Spd
kts
Gust
kts
25/11:30pm 6.1 3.2 4.9 92 0.5 NNE 9 13 5 7 1022.0 1022.0 0.0
25/11:00pm 6.6 3.8 5.2 91 0.6 NNE 9 13 5 7 1022.3 1022.3 0.0
25/10:30pm 7.0 3.9 5.5 90 0.7 NNE 11 15 6 8 1022.4 1022.4 0.0
25/10:00pm 7.9 5.8 6.7 92 0.6 NNE 7 9 4 5 1022.4 1022.4 0.0
25/09:30pm 6.9 6.1 6.3 96 0.3 CALM 0 6 0 3 1022.2 1022.2 0.0
25/09:00pm 7.0 6.1 5.9 93 0.5 CALM 0 0 0 0 1022.4 1022.4 0.0
25/08:30pm 8.4 6.8 6.4 87 0.9 N 4 9 2 5 1022.5 1022.5 0.0
25/08:00pm 7.9 6.6 6.2 89 0.8 NNE 2 7 1 4 1022.7 1022.7 0.0
25/07:30pm 9.6 7.5 6.5 81 1.4 NNE 7 9 4 5 1022.6 1022.6 0.0
25/07:00pm 8.2 7.4 6.7 90 0.7 CALM 0 0 0 0 1022.7 1022.7 0.0
25/06:30pm 8.1 7.3 6.6 90 0.7 CALM 0 0 0 0 1022.6 1022.6 0.0
25/06:00pm 8.4 7.6 6.4 87 0.9 CALM 0 0 0 0 1022.6 1022.6 0.0

Other Formats:

Comma delimited format used in spreadsheet applications
http://www.bom.gov.au/fwo/IDV60801/IDV60801.95936.axf

JavaScript Object Notation format (JSON) in row-major order
http://www.bom.gov.au/fwo/IDV60801/IDV60801.95936.json